sensor_id;sensor_type;location;lat;lon;timestamp;P1;durP1;ratioP1;P2;durP2;ratioP2
42742;SDS011;28397;44.552;-0.848;2023-05-28T00:00:25;7.50;;;6.80;;
42742;SDS011;28397;44.552;-0.848;2023-05-28T00:02:51;8.15;;;7.25;;
42742;SDS011;28397;44.552;-0.848;2023-05-28T00:05:17;7.97;;;7.03;;
42742;SDS011;28397;44.552;-0.848;2023-05-28T00:07:43;8.02;;;7.03;;
42742;SDS011;28397;44.552;-0.848;2023-05-28T00:10:09;8.40;;;6.85;;
42742;SDS011;28397;44.552;-0.848;2023-05-28T00:12:35;8.00;;;6.72;;
42742;SDS011;28397;44.552;-0.848;2023-05-28T00:15:01;8.57;;;6.80;;
42742;SDS011;28397;44.552;-0.848;2023-05-28T00:17:27;7.78;;;6.85;;
42742;SDS011;28397;44.552;-0.848;2023-05-28T00:19:53;8.57;;;6.93;;
42742;SDS011;28397;44.552;-0.848;2023-05-28T00:22:19;7.75;;;7.05;;
42742;SDS011;28397;44.552;-0.848;2023-05-28T00:24:44;8.02;;;7.18;;
42742;SDS011;28397;44.552;-0.848;2023-05-28T00:27:10;7.95;;;7.25;;
42742;SDS011;28397;44.552;-0.848;2023-05-28T00:29:36;9.13;;;7.35;;
42742;SDS011;28397;44.552;-0.848;2023-05-28T00:32:02;8.63;;;7.00;;
42742;SDS011;28397;44.552;-0.848;2023-05-28T00:34:27;8.48;;;6.88;;
42742;SDS011;28397;44.552;-0.848;2023-05-28T00:36:53;10.00;;;7.30;;
42742;SDS011;28397;44.552;-0.848;2023-05-28T00:39:19;8.63;;;7.03;;
42742;SDS011;28397;44.552;-0.848;2023-05-28T00:41:45;11.07;;;7.97;;
42742;SDS011;28397;44.552;-0.848;2023-05-28T00:44:12;7.70;;;6.90;;
42742;SDS011;28397;44.552;-0.848;2023-05-28T00:46:42;8.82;;;7.07;;
42742;SDS011;28397;44.552;-0.848;2023-05-28T00:49:10;8.60;;;7.70;;
42742;SDS011;28397;44.552;-0.848;2023-05-28T00:51:37;8.90;;;7.18;;
42742;SDS011;28397;44.552;-0.848;2023-05-28T00:54:03;8.32;;;7.50;;
42742;SDS011;28397;44.552;-0.848;2023-05-28T00:56:30;10.48;;;7.80;;
42742;SDS011;28397;44.552;-0.848;2023-05-28T00:58:57;9.10;;;7.50;;
42742;SDS011;28397;44.552;-0.848;2023-05-28T01:01:25;8.70;;;7.10;;
42742;SDS011;28397;44.552;-0.848;2023-05-28T01:03:51;8.77;;;7.57;;
42742;SDS011;28397;44.552;-0.848;2023-05-28T01:06:18;8.65;;;7.75;;
42742;SDS011;28397;44.552;-0.848;2023-05-28T01:08:46;8.05;;;7.20;;
42742;SDS011;28397;44.552;-0.848;2023-05-28T01:11:15;9.10;;;7.60;;
42742;SDS011;28397;44.552;-0.848;2023-05-28T01:13:44;9.25;;;7.10;;
42742;SDS011;28397;44.552;-0.848;2023-05-28T01:16:10;9.73;;;7.65;;
42742;SDS011;28397;44.552;-0.848;2023-05-28T01:18:36;9.23;;;7.30;;
42742;SDS011;28397;44.552;-0.848;2023-05-28T01:21:04;9.63;;;7.72;;
42742;SDS011;28397;44.552;-0.848;2023-05-28T01:23:41;8.68;;;7.10;;
42742;SDS011;28397;44.552;-0.848;2023-05-28T01:26:12;8.15;;;7.35;;
42742;SDS011;28397;44.552;-0.848;2023-05-28T01:28:39;8.30;;;7.40;;
42742;SDS011;28397;44.552;-0.848;2023-05-28T01:31:12;8.98;;;7.40;;
42742;SDS011;28397;44.552;-0.848;2023-05-28T01:33:39;9.38;;;7.95;;
42742;SDS011;28397;44.552;-0.848;2023-05-28T01:36:08;8.50;;;7.60;;
42742;SDS011;28397;44.552;-0.848;2023-05-28T01:38:47;8.27;;;7.43;;
42742;SDS011;28397;44.552;-0.848;2023-05-28T01:41:14;8.23;;;7.35;;
42742;SDS011;28397;44.552;-0.848;2023-05-28T01:43:41;9.15;;;7.60;;
42742;SDS011;28397;44.552;-0.848;2023-05-28T01:46:08;8.90;;;7.20;;
42742;SDS011;28397;44.552;-0.848;2023-05-28T01:48:35;8.55;;;7.65;;
42742;SDS011;28397;44.552;-0.848;2023-05-28T01:51:02;8.45;;;7.40;;
42742;SDS011;28397;44.552;-0.848;2023-05-28T01:53:27;9.00;;;7.30;;
42742;SDS011;28397;44.552;-0.848;2023-05-28T01:55:53;9.32;;;7.68;;
42742;SDS011;28397;44.552;-0.848;2023-05-28T01:58:21;8.15;;;7.35;;
42742;SDS011;28397;44.552;-0.848;2023-05-28T02:01:05;9.70;;;7.72;;
42742;SDS011;28397;44.552;-0.848;2023-05-28T02:03:39;8.68;;;7.55;;
42742;SDS011;28397;44.552;-0.848;2023-05-28T02:06:05;8.70;;;7.95;;
42742;SDS011;28397;44.552;-0.848;2023-05-28T02:08:31;8.75;;;7.85;;
42742;SDS011;28397;44.552;-0.848;2023-05-28T02:10:56;9.45;;;7.90;;
42742;SDS011;28397;44.552;-0.848;2023-05-28T02:13:22;8.88;;;7.55;;
42742;SDS011;28397;44.552;-0.848;2023-05-28T02:15:48;9.65;;;7.90;;
42742;SDS011;28397;44.552;-0.848;2023-05-28T02:18:13;8.43;;;7.65;;
42742;SDS011;28397;44.552;-0.848;2023-05-28T02:20:41;8.63;;;7.55;;
42742;SDS011;28397;44.552;-0.848;2023-05-28T02:23:07;8.90;;;8.00;;
42742;SDS011;28397;44.552;-0.848;2023-05-28T02:25:33;9.23;;;7.82;;
42742;SDS011;28397;44.552;-0.848;2023-05-28T02:27:59;10.05;;;8.27;;
42742;SDS011;28397;44.552;-0.848;2023-05-28T02:30:24;9.40;;;8.32;;
42742;SDS011;28397;44.552;-0.848;2023-05-28T02:32:51;8.15;;;7.35;;
42742;SDS011;28397;44.552;-0.848;2023-05-28T02:35:16;8.50;;;7.35;;
42742;SDS011;28397;44.552;-0.848;2023-05-28T02:37:44;8.75;;;7.80;;
42742;SDS011;28397;44.552;-0.848;2023-05-28T02:40:10;9.05;;;7.70;;
42742;SDS011;28397;44.552;-0.848;2023-05-28T02:42:36;9.70;;;7.45;;
42742;SDS011;28397;44.552;-0.848;2023-05-28T02:45:02;8.77;;;7.85;;
42742;SDS011;28397;44.552;-0.848;2023-05-28T02:47:29;9.43;;;7.53;;
42742;SDS011;28397;44.552;-0.848;2023-05-28T02:49:54;8.30;;;7.50;;
42742;SDS011;28397;44.552;-0.848;2023-05-28T02:52:20;9.02;;;8.13;;
42742;SDS011;28397;44.552;-0.848;2023-05-28T02:54:46;8.57;;;7.78;;
42742;SDS011;28397;44.552;-0.848;2023-05-28T02:57:11;10.68;;;7.68;;
42742;SDS011;28397;44.552;-0.848;2023-05-28T02:59:37;11.38;;;8.10;;
42742;SDS011;28397;44.552;-0.848;2023-05-28T03:02:03;8.65;;;7.70;;
42742;SDS011;28397;44.552;-0.848;2023-05-28T03:04:29;8.90;;;8.00;;
42742;SDS011;28397;44.552;-0.848;2023-05-28T03:06:54;8.00;;;7.25;;
42742;SDS011;28397;44.552;-0.848;2023-05-28T03:09:20;8.98;;;7.50;;
42742;SDS011;28397;44.552;-0.848;2023-05-28T03:11:46;8.35;;;7.22;;
42742;SDS011;28397;44.552;-0.848;2023-05-28T03:14:12;10.73;;;7.78;;
42742;SDS011;28397;44.552;-0.848;2023-05-28T03:16:38;9.13;;;7.57;;
42742;SDS011;28397;44.552;-0.848;2023-05-28T03:19:03;9.05;;;7.97;;
42742;SDS011;28397;44.552;-0.848;2023-05-28T03:21:29;9.00;;;7.22;;
42742;SDS011;28397;44.552;-0.848;2023-05-28T03:23:55;8.90;;;8.00;;
42742;SDS011;28397;44.552;-0.848;2023-05-28T03:26:20;11.20;;;7.20;;
42742;SDS011;28397;44.552;-0.848;2023-05-28T03:28:46;9.00;;;8.05;;
42742;SDS011;28397;44.552;-0.848;2023-05-28T03:31:12;9.02;;;7.20;;
42742;SDS011;28397;44.552;-0.848;2023-05-28T03:33:38;9.68;;;8.00;;
42742;SDS011;28397;44.552;-0.848;2023-05-28T03:36:04;9.38;;;7.78;;
42742;SDS011;28397;44.552;-0.848;2023-05-28T03:38:32;9.10;;;7.85;;
42742;SDS011;28397;44.552;-0.848;2023-05-28T03:40:58;10.38;;;8.27;;
42742;SDS011;28397;44.552;-0.848;2023-05-28T03:43:24;9.48;;;8.55;;
42742;SDS011;28397;44.552;-0.848;2023-05-28T03:45:49;9.85;;;8.15;;
42742;SDS011;28397;44.552;-0.848;2023-05-28T03:48:15;9.43;;;7.55;;
42742;SDS011;28397;44.552;-0.848;2023-05-28T03:50:41;10.07;;;7.97;;
42742;SDS011;28397;44.552;-0.848;2023-05-28T03:53:06;9.00;;;8.07;;
42742;SDS011;28397;44.552;-0.848;2023-05-28T03:55:32;8.90;;;8.00;;
42742;SDS011;28397;44.552;-0.848;2023-05-28T03:57:58;11.02;;;8.02;;
42742;SDS011;28397;44.552;-0.848;2023-05-28T04:00:24;10.18;;;8.20;;
42742;SDS011;28397;44.552;-0.848;2023-05-28T04:02:50;8.90;;;8.00;;
42742;SDS011;28397;44.552;-0.848;2023-05-28T04:05:15;11.05;;;8.43;;
42742;SDS011;28397;44.552;-0.848;2023-05-28T04:07:41;10.30;;;8.38;;
42742;SDS011;28397;44.552;-0.848;2023-05-28T04:10:07;10.35;;;8.60;;
42742;SDS011;28397;44.552;-0.848;2023-05-28T04:12:33;9.48;;;8.40;;
42742;SDS011;28397;44.552;-0.848;2023-05-28T04:14:58;9.20;;;8.07;;
42742;SDS011;28397;44.552;-0.848;2023-05-28T04:17:25;8.93;;;8.02;;
42742;SDS011;28397;44.552;-0.848;2023-05-28T04:19:55;11.57;;;8.60;;
42742;SDS011;28397;44.552;-0.848;2023-05-28T04:22:20;10.52;;;8.55;;
42742;SDS011;28397;44.552;-0.848;2023-05-28T04:24:49;11.80;;;8.25;;
42742;SDS011;28397;44.552;-0.848;2023-05-28T04:27:16;10.93;;;8.10;;
42742;SDS011;28397;44.552;-0.848;2023-05-28T04:29:42;10.27;;;8.30;;
42742;SDS011;28397;44.552;-0.848;2023-05-28T04:32:09;9.18;;;8.20;;
42742;SDS011;28397;44.552;-0.848;2023-05-28T04:34:35;9.40;;;8.45;;
42742;SDS011;28397;44.552;-0.848;2023-05-28T04:37:02;9.38;;;8.35;;
42742;SDS011;28397;44.552;-0.848;2023-05-28T04:39:29;9.45;;;8.45;;
42742;SDS011;28397;44.552;-0.848;2023-05-28T04:41:55;9.48;;;8.13;;
42742;SDS011;28397;44.552;-0.848;2023-05-28T04:44:21;9.02;;;7.70;;
42742;SDS011;28397;44.552;-0.848;2023-05-28T04:46:50;9.77;;;8.77;;
42742;SDS011;28397;44.552;-0.848;2023-05-28T04:49:16;9.27;;;8.18;;
42742;SDS011;28397;44.552;-0.848;2023-05-28T04:51:42;12.18;;;8.55;;
42742;SDS011;28397;44.552;-0.848;2023-05-28T04:54:08;9.13;;;8.20;;
42742;SDS011;28397;44.552;-0.848;2023-05-28T04:56:37;8.88;;;8.05;;
42742;SDS011;28397;44.552;-0.848;2023-05-28T04:59:03;9.35;;;8.38;;
42742;SDS011;28397;44.552;-0.848;2023-05-28T05:01:30;12.95;;;8.57;;
42742;SDS011;28397;44.552;-0.848;2023-05-28T05:03:58;11.40;;;8.80;;
42742;SDS011;28397;44.552;-0.848;2023-05-28T05:06:24;10.68;;;8.25;;
42742;SDS011;28397;44.552;-0.848;2023-05-28T05:08:50;12.27;;;8.23;;
42742;SDS011;28397;44.552;-0.848;2023-05-28T05:11:16;9.82;;;8.52;;
42742;SDS011;28397;44.552;-0.848;2023-05-28T05:13:41;12.32;;;9.20;;
42742;SDS011;28397;44.552;-0.848;2023-05-28T05:16:07;9.48;;;8.57;;
42742;SDS011;28397;44.552;-0.848;2023-05-28T05:18:33;10.23;;;8.70;;
42742;SDS011;28397;44.552;-0.848;2023-05-28T05:20:59;11.32;;;9.13;;
42742;SDS011;28397;44.552;-0.848;2023-05-28T05:23:25;10.43;;;8.52;;
42742;SDS011;28397;44.552;-0.848;2023-05-28T05:25:51;11.35;;;8.40;;
42742;SDS011;28397;44.552;-0.848;2023-05-28T05:28:17;11.38;;;8.70;;
42742;SDS011;28397;44.552;-0.848;2023-05-28T05:30:43;9.13;;;8.32;;
42742;SDS011;28397;44.552;-0.848;2023-05-28T05:33:08;9.30;;;8.40;;
42742;SDS011;28397;44.552;-0.848;2023-05-28T05:35:34;10.35;;;8.63;;
42742;SDS011;28397;44.552;-0.848;2023-05-28T05:38:00;9.82;;;8.80;;
42742;SDS011;28397;44.552;-0.848;2023-05-28T05:40:26;10.77;;;8.68;;
42742;SDS011;28397;44.552;-0.848;2023-05-28T05:42:52;8.68;;;7.80;;
42742;SDS011;28397;44.552;-0.848;2023-05-28T05:45:18;10.55;;;8.10;;
42742;SDS011;28397;44.552;-0.848;2023-05-28T05:47:44;10.57;;;8.60;;
42742;SDS011;28397;44.552;-0.848;2023-05-28T05:50:12;9.32;;;8.30;;
42742;SDS011;28397;44.552;-0.848;2023-05-28T05:52:38;9.38;;;8.48;;
42742;SDS011;28397;44.552;-0.848;2023-05-28T05:55:06;12.00;;;8.52;;
42742;SDS011;28397;44.552;-0.848;2023-05-28T05:57:32;11.27;;;8.88;;
42742;SDS011;28397;44.552;-0.848;2023-05-28T05:59:58;9.98;;;8.25;;
42742;SDS011;28397;44.552;-0.848;2023-05-28T06:02:24;12.25;;;9.18;;
42742;SDS011;28397;44.552;-0.848;2023-05-28T06:04:50;11.20;;;8.75;;
42742;SDS011;28397;44.552;-0.848;2023-05-28T06:07:17;10.27;;;8.50;;
42742;SDS011;28397;44.552;-0.848;2023-05-28T06:09:42;10.43;;;8.80;;
42742;SDS011;28397;44.552;-0.848;2023-05-28T06:12:08;10.23;;;8.52;;
42742;SDS011;28397;44.552;-0.848;2023-05-28T06:14:34;11.30;;;8.85;;
42742;SDS011;28397;44.552;-0.848;2023-05-28T06:17:00;9.80;;;8.80;;
42742;SDS011;28397;44.552;-0.848;2023-05-28T06:19:26;10.18;;;8.90;;
42742;SDS011;28397;44.552;-0.848;2023-05-28T06:21:52;13.00;;;9.57;;
42742;SDS011;28397;44.552;-0.848;2023-05-28T06:24:18;11.73;;;9.00;;
42742;SDS011;28397;44.552;-0.848;2023-05-28T06:26:44;10.88;;;8.55;;
42742;SDS011;28397;44.552;-0.848;2023-05-28T06:29:10;9.77;;;8.13;;
42742;SDS011;28397;44.552;-0.848;2023-05-28T06:31:36;11.55;;;8.90;;
42742;SDS011;28397;44.552;-0.848;2023-05-28T06:34:01;11.38;;;8.70;;
42742;SDS011;28397;44.552;-0.848;2023-05-28T06:36:27;10.52;;;8.73;;
42742;SDS011;28397;44.552;-0.848;2023-05-28T06:38:54;11.27;;;8.77;;
42742;SDS011;28397;44.552;-0.848;2023-05-28T06:41:19;12.40;;;8.75;;
42742;SDS011;28397;44.552;-0.848;2023-05-28T06:43:46;9.50;;;7.45;;
42742;SDS011;28397;44.552;-0.848;2023-05-28T06:46:13;9.10;;;8.20;;
42742;SDS011;28397;44.552;-0.848;2023-05-28T06:48:39;10.07;;;8.10;;
42742;SDS011;28397;44.552;-0.848;2023-05-28T06:51:04;10.90;;;8.07;;
42742;SDS011;28397;44.552;-0.848;2023-05-28T06:53:30;10.32;;;7.93;;
42742;SDS011;28397;44.552;-0.848;2023-05-28T06:55:56;8.77;;;7.97;;
42742;SDS011;28397;44.552;-0.848;2023-05-28T06:58:23;9.80;;;7.80;;
42742;SDS011;28397;44.552;-0.848;2023-05-28T07:00:48;10.18;;;7.55;;
42742;SDS011;28397;44.552;-0.848;2023-05-28T07:03:14;8.70;;;7.78;;
42742;SDS011;28397;44.552;-0.848;2023-05-28T07:05:40;8.75;;;7.80;;
42742;SDS011;28397;44.552;-0.848;2023-05-28T07:08:05;9.85;;;7.82;;
42742;SDS011;28397;44.552;-0.848;2023-05-28T07:10:32;10.70;;;8.73;;
42742;SDS011;28397;44.552;-0.848;2023-05-28T07:12:57;10.13;;;8.10;;
42742;SDS011;28397;44.552;-0.848;2023-05-28T07:15:23;9.45;;;7.60;;
42742;SDS011;28397;44.552;-0.848;2023-05-28T07:17:49;10.13;;;8.15;;
42742;SDS011;28397;44.552;-0.848;2023-05-28T07:20:14;10.70;;;7.70;;
42742;SDS011;28397;44.552;-0.848;2023-05-28T07:22:41;9.57;;;7.55;;
42742;SDS011;28397;44.552;-0.848;2023-05-28T07:25:06;8.75;;;7.40;;
42742;SDS011;28397;44.552;-0.848;2023-05-28T07:27:33;11.60;;;7.85;;
42742;SDS011;28397;44.552;-0.848;2023-05-28T07:29:58;8.55;;;7.63;;
42742;SDS011;28397;44.552;-0.848;2023-05-28T07:32:24;12.30;;;7.28;;
42742;SDS011;28397;44.552;-0.848;2023-05-28T07:34:50;9.75;;;7.75;;
42742;SDS011;28397;44.552;-0.848;2023-05-28T07:37:16;9.52;;;7.72;;
42742;SDS011;28397;44.552;-0.848;2023-05-28T07:39:42;11.20;;;7.72;;
42742;SDS011;28397;44.552;-0.848;2023-05-28T07:42:07;9.32;;;7.85;;
42742;SDS011;28397;44.552;-0.848;2023-05-28T07:44:33;10.48;;;7.68;;
42742;SDS011;28397;44.552;-0.848;2023-05-28T07:46:59;9.30;;;7.50;;
42742;SDS011;28397;44.552;-0.848;2023-05-28T07:49:25;8.52;;;7.10;;
42742;SDS011;28397;44.552;-0.848;2023-05-28T07:51:50;11.65;;;7.57;;
42742;SDS011;28397;44.552;-0.848;2023-05-28T07:54:16;9.52;;;7.55;;
42742;SDS011;28397;44.552;-0.848;2023-05-28T07:56:42;8.43;;;7.60;;
42742;SDS011;28397;44.552;-0.848;2023-05-28T07:59:08;11.13;;;7.45;;
42742;SDS011;28397;44.552;-0.848;2023-05-28T08:01:34;9.35;;;7.90;;
42742;SDS011;28397;44.552;-0.848;2023-05-28T08:04:00;9.93;;;7.70;;
42742;SDS011;28397;44.552;-0.848;2023-05-28T08:06:26;9.88;;;7.78;;
42742;SDS011;28397;44.552;-0.848;2023-05-28T08:08:52;8.40;;;7.60;;
42742;SDS011;28397;44.552;-0.848;2023-05-28T08:11:20;12.43;;;7.63;;
42742;SDS011;28397;44.552;-0.848;2023-05-28T08:13:46;11.40;;;7.72;;
42742;SDS011;28397;44.552;-0.848;2023-05-28T08:16:12;9.20;;;7.70;;
42742;SDS011;28397;44.552;-0.848;2023-05-28T08:18:38;10.32;;;7.50;;
42742;SDS011;28397;44.552;-0.848;2023-05-28T08:21:06;10.50;;;7.07;;
42742;SDS011;28397;44.552;-0.848;2023-05-28T08:23:32;12.82;;;8.02;;
42742;SDS011;28397;44.552;-0.848;2023-05-28T08:26:02;10.57;;;7.25;;
42742;SDS011;28397;44.552;-0.848;2023-05-28T08:28:28;12.15;;;7.72;;
42742;SDS011;28397;44.552;-0.848;2023-05-28T08:30:55;8.18;;;7.30;;
42742;SDS011;28397;44.552;-0.848;2023-05-28T08:33:21;12.05;;;7.80;;
42742;SDS011;28397;44.552;-0.848;2023-05-28T08:35:47;20.20;;;9.55;;
42742;SDS011;28397;44.552;-0.848;2023-05-28T08:38:13;19.20;;;8.52;;
42742;SDS011;28397;44.552;-0.848;2023-05-28T08:40:39;9.38;;;7.80;;
42742;SDS011;28397;44.552;-0.848;2023-05-28T08:43:06;10.32;;;7.85;;
42742;SDS011;28397;44.552;-0.848;2023-05-28T08:45:33;8.48;;;6.90;;
42742;SDS011;28397;44.552;-0.848;2023-05-28T08:48:00;11.55;;;7.32;;
42742;SDS011;28397;44.552;-0.848;2023-05-28T08:50:26;9.23;;;7.50;;
42742;SDS011;28397;44.552;-0.848;2023-05-28T08:52:53;11.00;;;7.28;;
42742;SDS011;28397;44.552;-0.848;2023-05-28T08:55:19;13.15;;;7.75;;
42742;SDS011;28397;44.552;-0.848;2023-05-28T08:57:45;10.20;;;7.20;;
42742;SDS011;28397;44.552;-0.848;2023-05-28T09:00:11;8.57;;;7.65;;
42742;SDS011;28397;44.552;-0.848;2023-05-28T09:02:38;9.70;;;7.68;;
42742;SDS011;28397;44.552;-0.848;2023-05-28T09:05:05;9.77;;;7.22;;
42742;SDS011;28397;44.552;-0.848;2023-05-28T09:07:30;9.57;;;7.45;;
42742;SDS011;28397;44.552;-0.848;2023-05-28T09:09:57;9.02;;;7.43;;
42742;SDS011;28397;44.552;-0.848;2023-05-28T09:12:23;8.98;;;7.45;;
42742;SDS011;28397;44.552;-0.848;2023-05-28T09:14:52;10.65;;;6.93;;
42742;SDS011;28397;44.552;-0.848;2023-05-28T09:17:34;8.43;;;7.13;;
42742;SDS011;28397;44.552;-0.848;2023-05-28T09:20:08;10.95;;;7.15;;
42742;SDS011;28397;44.552;-0.848;2023-05-28T09:22:37;7.93;;;7.13;;
42742;SDS011;28397;44.552;-0.848;2023-05-28T09:25:04;8.52;;;7.32;;
42742;SDS011;28397;44.552;-0.848;2023-05-28T09:27:33;8.60;;;7.43;;
42742;SDS011;28397;44.552;-0.848;2023-05-28T09:30:03;10.85;;;7.20;;
42742;SDS011;28397;44.552;-0.848;2023-05-28T09:32:32;8.80;;;7.65;;
42742;SDS011;28397;44.552;-0.848;2023-05-28T09:34:59;13.18;;;7.72;;
42742;SDS011;28397;44.552;-0.848;2023-05-28T09:37:27;10.73;;;7.07;;
42742;SDS011;28397;44.552;-0.848;2023-05-28T09:40:03;9.02;;;7.03;;
42742;SDS011;28397;44.552;-0.848;2023-05-28T09:42:36;10.48;;;7.63;;
42742;SDS011;28397;44.552;-0.848;2023-05-28T09:45:04;8.15;;;7.07;;
42742;SDS011;28397;44.552;-0.848;2023-05-28T09:47:30;9.80;;;7.70;;
42742;SDS011;28397;44.552;-0.848;2023-05-28T09:49:56;9.48;;;7.72;;
42742;SDS011;28397;44.552;-0.848;2023-05-28T09:52:22;12.23;;;7.68;;
42742;SDS011;28397;44.552;-0.848;2023-05-28T09:54:54;9.07;;;7.53;;
42742;SDS011;28397;44.552;-0.848;2023-05-28T09:57:24;10.30;;;7.55;;
42742;SDS011;28397;44.552;-0.848;2023-05-28T09:59:54;11.43;;;7.05;;
42742;SDS011;28397;44.552;-0.848;2023-05-28T10:05:06;8.45;;;7.20;;
42742;SDS011;28397;44.552;-0.848;2023-05-28T10:07:33;8.30;;;6.93;;
42742;SDS011;28397;44.552;-0.848;2023-05-28T10:10:01;8.85;;;7.95;;
42742;SDS011;28397;44.552;-0.848;2023-05-28T10:12:28;10.07;;;7.45;;
42742;SDS011;28397;44.552;-0.848;2023-05-28T10:14:55;9.15;;;7.32;;
42742;SDS011;28397;44.552;-0.848;2023-05-28T10:17:22;9.40;;;7.30;;
42742;SDS011;28397;44.552;-0.848;2023-05-28T10:19:48;9.63;;;7.05;;
42742;SDS011;28397;44.552;-0.848;2023-05-28T10:22:15;8.00;;;7.20;;
42742;SDS011;28397;44.552;-0.848;2023-05-28T10:24:42;7.63;;;6.63;;
42742;SDS011;28397;44.552;-0.848;2023-05-28T10:27:13;9.18;;;7.03;;
42742;SDS011;28397;44.552;-0.848;2023-05-28T10:29:44;8.13;;;6.75;;
42742;SDS011;28397;44.552;-0.848;2023-05-28T10:32:14;8.85;;;6.75;;
42742;SDS011;28397;44.552;-0.848;2023-05-28T10:34:41;9.30;;;7.07;;
42742;SDS011;28397;44.552;-0.848;2023-05-28T10:37:07;7.90;;;6.75;;
42742;SDS011;28397;44.552;-0.848;2023-05-28T10:39:40;11.30;;;7.75;;
42742;SDS011;28397;44.552;-0.848;2023-05-28T10:42:09;12.37;;;8.63;;
42742;SDS011;28397;44.552;-0.848;2023-05-28T10:44:48;10.93;;;7.72;;
42742;SDS011;28397;44.552;-0.848;2023-05-28T10:47:15;12.27;;;7.60;;
42742;SDS011;28397;44.552;-0.848;2023-05-28T10:50:01;14.50;;;8.00;;
42742;SDS011;28397;44.552;-0.848;2023-05-28T10:52:35;9.60;;;7.95;;
42742;SDS011;28397;44.552;-0.848;2023-05-28T10:55:02;11.77;;;7.90;;
42742;SDS011;28397;44.552;-0.848;2023-05-28T10:57:39;13.25;;;7.80;;
42742;SDS011;28397;44.552;-0.848;2023-05-28T11:00:08;12.25;;;8.02;;
42742;SDS011;28397;44.552;-0.848;2023-05-28T11:02:38;13.60;;;8.50;;
42742;SDS011;28397;44.552;-0.848;2023-05-28T11:05:07;13.63;;;7.85;;
42742;SDS011;28397;44.552;-0.848;2023-05-28T11:07:34;13.27;;;8.07;;
42742;SDS011;28397;44.552;-0.848;2023-05-28T11:10:02;12.88;;;7.97;;
42742;SDS011;28397;44.552;-0.848;2023-05-28T11:12:35;11.15;;;7.72;;
42742;SDS011;28397;44.552;-0.848;2023-05-28T11:15:02;13.02;;;7.93;;
42742;SDS011;28397;44.552;-0.848;2023-05-28T11:17:28;16.95;;;8.48;;
42742;SDS011;28397;44.552;-0.848;2023-05-28T11:19:54;12.90;;;7.55;;
42742;SDS011;28397;44.552;-0.848;2023-05-28T11:22:20;9.15;;;7.07;;
42742;SDS011;28397;44.552;-0.848;2023-05-28T11:27:15;10.95;;;8.00;;
42742;SDS011;28397;44.552;-0.848;2023-05-28T11:29:41;10.38;;;7.30;;
42742;SDS011;28397;44.552;-0.848;2023-05-28T11:32:07;10.15;;;7.15;;
42742;SDS011;28397;44.552;-0.848;2023-05-28T11:34:32;12.75;;;7.95;;
42742;SDS011;28397;44.552;-0.848;2023-05-28T11:36:58;13.50;;;7.45;;
42742;SDS011;28397;44.552;-0.848;2023-05-28T11:39:24;13.20;;;7.05;;
42742;SDS011;28397;44.552;-0.848;2023-05-28T11:41:50;11.18;;;6.97;;
42742;SDS011;28397;44.552;-0.848;2023-05-28T11:44:19;9.45;;;7.10;;
42742;SDS011;28397;44.552;-0.848;2023-05-28T11:46:54;12.32;;;7.20;;
42742;SDS011;28397;44.552;-0.848;2023-05-28T11:49:21;10.30;;;7.40;;
42742;SDS011;28397;44.552;-0.848;2023-05-28T11:51:51;10.80;;;6.97;;
42742;SDS011;28397;44.552;-0.848;2023-05-28T11:54:17;11.70;;;6.50;;
42742;SDS011;28397;44.552;-0.848;2023-05-28T11:56:43;10.60;;;7.18;;
42742;SDS011;28397;44.552;-0.848;2023-05-28T11:59:12;10.43;;;7.32;;
42742;SDS011;28397;44.552;-0.848;2023-05-28T12:01:38;14.25;;;7.63;;
42742;SDS011;28397;44.552;-0.848;2023-05-28T12:04:07;10.80;;;7.47;;
42742;SDS011;28397;44.552;-0.848;2023-05-28T12:06:33;11.60;;;7.70;;
42742;SDS011;28397;44.552;-0.848;2023-05-28T12:09:05;12.50;;;7.10;;
42742;SDS011;28397;44.552;-0.848;2023-05-28T12:11:31;9.30;;;6.70;;
42742;SDS011;28397;44.552;-0.848;2023-05-28T12:13:57;10.25;;;7.60;;
42742;SDS011;28397;44.552;-0.848;2023-05-28T12:16:41;13.30;;;7.90;;
42742;SDS011;28397;44.552;-0.848;2023-05-28T12:19:16;10.50;;;7.40;;
42742;SDS011;28397;44.552;-0.848;2023-05-28T12:21:43;9.80;;;6.95;;
42742;SDS011;28397;44.552;-0.848;2023-05-28T12:24:15;11.25;;;6.97;;
42742;SDS011;28397;44.552;-0.848;2023-05-28T12:26:41;10.00;;;6.78;;
42742;SDS011;28397;44.552;-0.848;2023-05-28T12:29:07;10.10;;;6.63;;
42742;SDS011;28397;44.552;-0.848;2023-05-28T12:31:33;10.43;;;6.68;;
42742;SDS011;28397;44.552;-0.848;2023-05-28T12:33:58;11.50;;;8.13;;
42742;SDS011;28397;44.552;-0.848;2023-05-28T12:36:24;12.70;;;8.23;;
42742;SDS011;28397;44.552;-0.848;2023-05-28T12:38:50;10.80;;;7.18;;
42742;SDS011;28397;44.552;-0.848;2023-05-28T12:41:16;10.38;;;6.75;;
42742;SDS011;28397;44.552;-0.848;2023-05-28T12:43:42;10.30;;;6.90;;
42742;SDS011;28397;44.552;-0.848;2023-05-28T12:46:09;9.98;;;6.60;;
42742;SDS011;28397;44.552;-0.848;2023-05-28T12:48:35;9.32;;;6.90;;
42742;SDS011;28397;44.552;-0.848;2023-05-28T12:51:01;14.02;;;7.00;;
42742;SDS011;28397;44.552;-0.848;2023-05-28T12:53:28;10.30;;;6.50;;
42742;SDS011;28397;44.552;-0.848;2023-05-28T12:55:54;10.30;;;6.45;;
42742;SDS011;28397;44.552;-0.848;2023-05-28T12:58:20;12.05;;;6.80;;
42742;SDS011;28397;44.552;-0.848;2023-05-28T13:00:46;11.85;;;6.38;;
42742;SDS011;28397;44.552;-0.848;2023-05-28T13:03:13;9.77;;;6.43;;
42742;SDS011;28397;44.552;-0.848;2023-05-28T13:05:38;9.65;;;6.50;;
42742;SDS011;28397;44.552;-0.848;2023-05-28T13:08:04;10.65;;;6.32;;
42742;SDS011;28397;44.552;-0.848;2023-05-28T13:10:30;13.27;;;6.30;;
42742;SDS011;28397;44.552;-0.848;2023-05-28T13:12:56;11.27;;;6.13;;
42742;SDS011;28397;44.552;-0.848;2023-05-28T13:15:22;11.45;;;6.57;;
42742;SDS011;28397;44.552;-0.848;2023-05-28T13:17:48;10.60;;;6.43;;
42742;SDS011;28397;44.552;-0.848;2023-05-28T13:20:13;12.05;;;6.50;;
42742;SDS011;28397;44.552;-0.848;2023-05-28T13:22:39;10.98;;;6.90;;
42742;SDS011;28397;44.552;-0.848;2023-05-28T13:25:07;12.50;;;6.78;;
42742;SDS011;28397;44.552;-0.848;2023-05-28T13:27:33;12.40;;;6.93;;
42742;SDS011;28397;44.552;-0.848;2023-05-28T13:30:00;9.00;;;6.32;;
42742;SDS011;28397;44.552;-0.848;2023-05-28T13:32:27;11.05;;;6.55;;
42742;SDS011;28397;44.552;-0.848;2023-05-28T13:34:53;14.15;;;6.80;;
42742;SDS011;28397;44.552;-0.848;2023-05-28T13:37:19;10.13;;;6.00;;
42742;SDS011;28397;44.552;-0.848;2023-05-28T13:39:45;11.82;;;7.00;;
42742;SDS011;28397;44.552;-0.848;2023-05-28T13:42:12;11.55;;;6.05;;
42742;SDS011;28397;44.552;-0.848;2023-05-28T13:44:38;10.48;;;6.72;;
42742;SDS011;28397;44.552;-0.848;2023-05-28T13:47:04;10.07;;;6.25;;
42742;SDS011;28397;44.552;-0.848;2023-05-28T13:49:30;8.30;;;6.45;;
42742;SDS011;28397;44.552;-0.848;2023-05-28T13:51:56;8.98;;;6.32;;
42742;SDS011;28397;44.552;-0.848;2023-05-28T13:54:21;11.55;;;6.13;;
42742;SDS011;28397;44.552;-0.848;2023-05-28T13:56:47;12.10;;;6.28;;
42742;SDS011;28397;44.552;-0.848;2023-05-28T13:59:13;13.50;;;6.95;;
42742;SDS011;28397;44.552;-0.848;2023-05-28T14:01:38;16.08;;;7.13;;
42742;SDS011;28397;44.552;-0.848;2023-05-28T14:04:04;10.27;;;6.38;;
42742;SDS011;28397;44.552;-0.848;2023-05-28T14:06:30;11.90;;;6.72;;
42742;SDS011;28397;44.552;-0.848;2023-05-28T14:08:57;14.05;;;6.80;;
42742;SDS011;28397;44.552;-0.848;2023-05-28T14:11:22;12.38;;;6.10;;
42742;SDS011;28397;44.552;-0.848;2023-05-28T14:13:48;13.02;;;7.18;;
42742;SDS011;28397;44.552;-0.848;2023-05-28T14:16:14;10.73;;;6.60;;
42742;SDS011;28397;44.552;-0.848;2023-05-28T14:18:40;12.13;;;6.80;;
42742;SDS011;28397;44.552;-0.848;2023-05-28T14:21:05;13.35;;;6.80;;
42742;SDS011;28397;44.552;-0.848;2023-05-28T14:23:32;12.48;;;6.40;;
42742;SDS011;28397;44.552;-0.848;2023-05-28T14:25:58;12.80;;;6.75;;
42742;SDS011;28397;44.552;-0.848;2023-05-28T14:28:23;10.65;;;6.50;;
42742;SDS011;28397;44.552;-0.848;2023-05-28T14:30:51;14.80;;;6.68;;